Bookmark and Share
Track history (hours):
 

Gene Herde

More information available from US FCC via Universal Licensing System and Coast Guard Vessel Documentation Center.

Last reported at 2014-Mar-12 14:04 UTC. Time now 2014-Apr-23 06:57 UTC.
Position N 39°04' W 084°52'.
Warning: this ship's position is 41 days out of date.

Length 39 m; draft 2.9 m.

Type: Towing. MMSI: 367143450.

NotesDate/timePositionNaut miles runAvg speedWind from/ knotsBaromVisibWave heightAir tempDewpointWater temp
2014-Mar-12 14:04N 39°04' W 084°52'4 6.0
2014-Mar-12 13:30N 39°06' W 084°49'5 5.0
2014-Mar-12 12:33N 39°08' W 084°43'4 4.1
2014-Mar-12 11:33N 39°05' W 084°39'5 5.3
2014-Mar-12 10:33N 39°06' W 084°32'5 4.8
2014-Mar-12 09:34N 39°06' W 084°26'4 4.4
2014-Mar-12 08:34N 39°03' W 084°23'6 5.6
2014-Mar-12 07:33N 38°59' W 084°18'  
2014-Mar-03 17:04N 38°45' W 083°51'3 4.1
2014-Mar-03 16:26N 38°46' W 083°54'8 4.1
2014-Mar-03 14:31N 38°46' W 084°04'4 4.5
2014-Mar-03 13:33N 38°48' W 084°09'2 1.7
2014-Mar-03 12:30N 38°48' W 084°11'3 3.5
2014-Mar-03 11:33N 38°50' W 084°14'4 4.2
2014-Mar-03 10:33N 38°55' W 084°15'4 4.3
2014-Mar-03 09:32N 38°58' W 084°18'4 4.1
2014-Mar-03 08:33N 39°02' W 084°20'3 3.1
2014-Mar-03 07:32N 39°03' W 084°24'0 0.4
2014-Mar-03 06:32N 39°03' W 084°25'4 4.0
2014-Mar-03 05:32N 39°06' W 084°27'3 3.2
2014-Mar-03 04:33N 39°06' W 084°30'4 3.7
2014-Mar-03 03:33N 39°05' W 084°35'4 4.3
2014-Mar-03 02:33N 39°06' W 084°40'5 4.5
2014-Mar-03 01:33N 39°09' W 084°45'  

Dump ship's entire track history

sailing weather and tide predictions

Gene Herde — WDD4338 — position and weather